sensor_id;sensor_type;location;lat;lon;timestamp;P1;durP1;ratioP1;P2;durP2;ratioP2
30515;SDS011;17297;54.022;10.760;2024-03-02T00:01:03;17.48;;;10.85;;
30515;SDS011;17297;54.022;10.760;2024-03-02T00:03:28;24.05;;;12.57;;
30515;SDS011;17297;54.022;10.760;2024-03-02T00:05:54;22.17;;;13.68;;
30515;SDS011;17297;54.022;10.760;2024-03-02T00:08:22;23.08;;;12.73;;
30515;SDS011;17297;54.022;10.760;2024-03-02T00:10:49;21.00;;;12.95;;
30515;SDS011;17297;54.022;10.760;2024-03-02T00:13:15;26.23;;;15.05;;
30515;SDS011;17297;54.022;10.760;2024-03-02T00:18:18;24.55;;;15.13;;
30515;SDS011;17297;54.022;10.760;2024-03-02T00:20:52;22.83;;;14.35;;
30515;SDS011;17297;54.022;10.760;2024-03-02T00:23:20;23.67;;;14.73;;
30515;SDS011;17297;54.022;10.760;2024-03-02T00:25:47;25.35;;;13.65;;
30515;SDS011;17297;54.022;10.760;2024-03-02T00:28:17;23.77;;;13.93;;
30515;SDS011;17297;54.022;10.760;2024-03-02T00:30:50;19.77;;;12.77;;
30515;SDS011;17297;54.022;10.760;2024-03-02T00:33:18;24.35;;;13.38;;
30515;SDS011;17297;54.022;10.760;2024-03-02T00:35:45;23.63;;;14.20;;
30515;SDS011;17297;54.022;10.760;2024-03-02T00:38:10;18.85;;;11.07;;
30515;SDS011;17297;54.022;10.760;2024-03-02T00:40:36;22.27;;;12.05;;
30515;SDS011;17297;54.022;10.760;2024-03-02T00:43:01;20.52;;;12.45;;
30515;SDS011;17297;54.022;10.760;2024-03-02T00:45:28;20.92;;;12.48;;
30515;SDS011;17297;54.022;10.760;2024-03-02T00:47:53;20.30;;;11.25;;
30515;SDS011;17297;54.022;10.760;2024-03-02T00:50:19;22.65;;;12.43;;
30515;SDS011;17297;54.022;10.760;2024-03-02T00:52:44;17.60;;;11.40;;
30515;SDS011;17297;54.022;10.760;2024-03-02T00:55:13;16.40;;;10.57;;
30515;SDS011;17297;54.022;10.760;2024-03-02T00:57:39;17.48;;;11.20;;
30515;SDS011;17297;54.022;10.760;2024-03-02T01:00:04;19.05;;;10.70;;
30515;SDS011;17297;54.022;10.760;2024-03-02T01:02:34;22.75;;;13.27;;
30515;SDS011;17297;54.022;10.760;2024-03-02T01:05:00;19.15;;;12.90;;
30515;SDS011;17297;54.022;10.760;2024-03-02T01:07:25;21.50;;;13.30;;
30515;SDS011;17297;54.022;10.760;2024-03-02T01:09:51;23.35;;;13.82;;
30515;SDS011;17297;54.022;10.760;2024-03-02T01:12:16;22.02;;;13.50;;
30515;SDS011;17297;54.022;10.760;2024-03-02T01:14:41;24.35;;;14.43;;
30515;SDS011;17297;54.022;10.760;2024-03-02T01:17:07;24.30;;;13.43;;
30515;SDS011;17297;54.022;10.760;2024-03-02T01:19:32;18.52;;;11.27;;
30515;SDS011;17297;54.022;10.760;2024-03-02T01:21:57;21.27;;;13.15;;
30515;SDS011;17297;54.022;10.760;2024-03-02T01:24:23;27.23;;;15.20;;
30515;SDS011;17297;54.022;10.760;2024-03-02T01:26:48;24.88;;;14.05;;
30515;SDS011;17297;54.022;10.760;2024-03-02T01:29:14;25.13;;;13.65;;
30515;SDS011;17297;54.022;10.760;2024-03-02T01:31:39;22.40;;;14.18;;
30515;SDS011;17297;54.022;10.760;2024-03-02T01:34:08;26.65;;;16.15;;
30515;SDS011;17297;54.022;10.760;2024-03-02T01:36:33;26.20;;;15.20;;
30515;SDS011;17297;54.022;10.760;2024-03-02T01:38:59;23.98;;;13.88;;
30515;SDS011;17297;54.022;10.760;2024-03-02T01:41:24;20.90;;;13.70;;
30515;SDS011;17297;54.022;10.760;2024-03-02T01:43:50;22.42;;;13.48;;
30515;SDS011;17297;54.022;10.760;2024-03-02T01:46:15;23.88;;;14.98;;
30515;SDS011;17297;54.022;10.760;2024-03-02T01:48:40;23.30;;;13.93;;
30515;SDS011;17297;54.022;10.760;2024-03-02T01:51:06;27.23;;;15.98;;
30515;SDS011;17297;54.022;10.760;2024-03-02T01:53:31;27.08;;;14.80;;
30515;SDS011;17297;54.022;10.760;2024-03-02T01:55:57;22.77;;;14.05;;
30515;SDS011;17297;54.022;10.760;2024-03-02T01:58:22;24.45;;;14.30;;
30515;SDS011;17297;54.022;10.760;2024-03-02T02:00:48;24.13;;;14.10;;
30515;SDS011;17297;54.022;10.760;2024-03-02T02:03:14;22.98;;;13.52;;
30515;SDS011;17297;54.022;10.760;2024-03-02T02:05:39;22.85;;;12.52;;
30515;SDS011;17297;54.022;10.760;2024-03-02T02:08:07;20.20;;;11.70;;
30515;SDS011;17297;54.022;10.760;2024-03-02T02:10:32;23.92;;;13.65;;
30515;SDS011;17297;54.022;10.760;2024-03-02T02:12:57;19.52;;;13.20;;
30515;SDS011;17297;54.022;10.760;2024-03-02T02:17:52;23.33;;;14.10;;
30515;SDS011;17297;54.022;10.760;2024-03-02T02:20:17;23.65;;;14.57;;
30515;SDS011;17297;54.022;10.760;2024-03-02T02:23:03;20.50;;;12.95;;
30515;SDS011;17297;54.022;10.760;2024-03-02T02:25:30;19.42;;;11.98;;
30515;SDS011;17297;54.022;10.760;2024-03-02T02:27:55;21.65;;;13.13;;
30515;SDS011;17297;54.022;10.760;2024-03-02T02:30:31;23.10;;;13.52;;
30515;SDS011;17297;54.022;10.760;2024-03-02T02:32:57;23.42;;;13.70;;
30515;SDS011;17297;54.022;10.760;2024-03-02T02:35:23;20.52;;;12.80;;
30515;SDS011;17297;54.022;10.760;2024-03-02T02:37:52;19.90;;;12.00;;
30515;SDS011;17297;54.022;10.760;2024-03-02T02:40:19;23.10;;;12.80;;
30515;SDS011;17297;54.022;10.760;2024-03-02T02:42:44;20.23;;;13.10;;
30515;SDS011;17297;54.022;10.760;2024-03-02T02:45:09;20.55;;;13.15;;
30515;SDS011;17297;54.022;10.760;2024-03-02T02:47:36;20.90;;;12.85;;
30515;SDS011;17297;54.022;10.760;2024-03-02T02:50:02;20.73;;;12.70;;
30515;SDS011;17297;54.022;10.760;2024-03-02T02:52:32;21.13;;;12.38;;
30515;SDS011;17297;54.022;10.760;2024-03-02T02:54:58;24.65;;;15.05;;
30515;SDS011;17297;54.022;10.760;2024-03-02T02:57:24;27.98;;;15.85;;
30515;SDS011;17297;54.022;10.760;2024-03-02T02:59:49;25.75;;;15.35;;
30515;SDS011;17297;54.022;10.760;2024-03-02T03:02:14;25.20;;;15.05;;
30515;SDS011;17297;54.022;10.760;2024-03-02T03:04:40;24.02;;;15.52;;
30515;SDS011;17297;54.022;10.760;2024-03-02T03:07:05;23.38;;;14.90;;
30515;SDS011;17297;54.022;10.760;2024-03-02T03:09:31;25.35;;;14.98;;
30515;SDS011;17297;54.022;10.760;2024-03-02T03:11:56;28.80;;;16.02;;
30515;SDS011;17297;54.022;10.760;2024-03-02T03:14:22;24.45;;;13.88;;
30515;SDS011;17297;54.022;10.760;2024-03-02T03:16:47;25.58;;;13.95;;
30515;SDS011;17297;54.022;10.760;2024-03-02T03:19:13;30.48;;;17.70;;
30515;SDS011;17297;54.022;10.760;2024-03-02T03:21:38;25.23;;;14.45;;
30515;SDS011;17297;54.022;10.760;2024-03-02T03:24:04;24.40;;;15.35;;
30515;SDS011;17297;54.022;10.760;2024-03-02T03:26:29;27.70;;;14.82;;
30515;SDS011;17297;54.022;10.760;2024-03-02T03:28:55;24.40;;;13.88;;
30515;SDS011;17297;54.022;10.760;2024-03-02T03:31:20;25.83;;;15.70;;
30515;SDS011;17297;54.022;10.760;2024-03-02T03:33:45;26.52;;;14.95;;
30515;SDS011;17297;54.022;10.760;2024-03-02T03:36:11;30.77;;;15.85;;
30515;SDS011;17297;54.022;10.760;2024-03-02T03:38:36;29.85;;;16.95;;
30515;SDS011;17297;54.022;10.760;2024-03-02T03:41:01;25.38;;;14.75;;
30515;SDS011;17297;54.022;10.760;2024-03-02T03:43:27;26.75;;;16.52;;
30515;SDS011;17297;54.022;10.760;2024-03-02T03:45:52;26.13;;;15.38;;
30515;SDS011;17297;54.022;10.760;2024-03-02T03:48:17;30.67;;;16.73;;
30515;SDS011;17297;54.022;10.760;2024-03-02T03:50:43;27.95;;;15.93;;
30515;SDS011;17297;54.022;10.760;2024-03-02T03:53:09;25.98;;;14.85;;
30515;SDS011;17297;54.022;10.760;2024-03-02T03:55:34;23.17;;;14.80;;
30515;SDS011;17297;54.022;10.760;2024-03-02T03:58:00;20.48;;;11.63;;
30515;SDS011;17297;54.022;10.760;2024-03-02T04:00:25;29.10;;;16.30;;
30515;SDS011;17297;54.022;10.760;2024-03-02T04:02:51;26.75;;;15.45;;
30515;SDS011;17297;54.022;10.760;2024-03-02T04:05:16;24.75;;;15.38;;
30515;SDS011;17297;54.022;10.760;2024-03-02T04:07:41;23.70;;;13.82;;
30515;SDS011;17297;54.022;10.760;2024-03-02T04:10:08;28.10;;;15.73;;
30515;SDS011;17297;54.022;10.760;2024-03-02T04:12:35;27.67;;;14.63;;
30515;SDS011;17297;54.022;10.760;2024-03-02T04:15:04;24.60;;;14.10;;
30515;SDS011;17297;54.022;10.760;2024-03-02T04:17:31;23.23;;;14.48;;
30515;SDS011;17297;54.022;10.760;2024-03-02T04:19:57;23.75;;;14.32;;
30515;SDS011;17297;54.022;10.760;2024-03-02T04:22:23;28.20;;;15.23;;
30515;SDS011;17297;54.022;10.760;2024-03-02T04:24:48;24.38;;;15.10;;
30515;SDS011;17297;54.022;10.760;2024-03-02T04:27:14;24.90;;;15.18;;
30515;SDS011;17297;54.022;10.760;2024-03-02T04:29:39;24.92;;;14.15;;
30515;SDS011;17297;54.022;10.760;2024-03-02T04:32:04;25.67;;;14.07;;
30515;SDS011;17297;54.022;10.760;2024-03-02T04:34:30;23.75;;;13.75;;
30515;SDS011;17297;54.022;10.760;2024-03-02T04:36:55;24.95;;;13.45;;
30515;SDS011;17297;54.022;10.760;2024-03-02T04:39:20;27.05;;;16.02;;
30515;SDS011;17297;54.022;10.760;2024-03-02T04:41:46;25.70;;;15.50;;
30515;SDS011;17297;54.022;10.760;2024-03-02T04:44:11;25.48;;;15.10;;
30515;SDS011;17297;54.022;10.760;2024-03-02T04:46:36;28.40;;;16.70;;
30515;SDS011;17297;54.022;10.760;2024-03-02T04:49:02;30.58;;;16.45;;
30515;SDS011;17297;54.022;10.760;2024-03-02T04:51:27;25.27;;;14.48;;
30515;SDS011;17297;54.022;10.760;2024-03-02T04:53:52;20.45;;;13.18;;
30515;SDS011;17297;54.022;10.760;2024-03-02T04:56:18;23.95;;;15.07;;
30515;SDS011;17297;54.022;10.760;2024-03-02T04:59:02;25.85;;;13.45;;
30515;SDS011;17297;54.022;10.760;2024-03-02T05:01:27;23.92;;;14.32;;
30515;SDS011;17297;54.022;10.760;2024-03-02T05:03:52;25.83;;;14.25;;
30515;SDS011;17297;54.022;10.760;2024-03-02T05:06:18;29.73;;;16.88;;
30515;SDS011;17297;54.022;10.760;2024-03-02T05:08:43;24.55;;;14.48;;
30515;SDS011;17297;54.022;10.760;2024-03-02T05:11:09;24.58;;;15.20;;
30515;SDS011;17297;54.022;10.760;2024-03-02T05:13:54;24.13;;;14.75;;
30515;SDS011;17297;54.022;10.760;2024-03-02T05:16:19;23.85;;;13.93;;
30515;SDS011;17297;54.022;10.760;2024-03-02T05:18:44;32.15;;;17.05;;
30515;SDS011;17297;54.022;10.760;2024-03-02T05:21:09;25.75;;;16.00;;
30515;SDS011;17297;54.022;10.760;2024-03-02T05:23:36;24.23;;;14.20;;
30515;SDS011;17297;54.022;10.760;2024-03-02T05:26:02;22.10;;;14.07;;
30515;SDS011;17297;54.022;10.760;2024-03-02T05:28:27;21.67;;;12.48;;
30515;SDS011;17297;54.022;10.760;2024-03-02T05:30:53;26.60;;;15.43;;
30515;SDS011;17297;54.022;10.760;2024-03-02T05:33:18;27.17;;;16.40;;
30515;SDS011;17297;54.022;10.760;2024-03-02T05:35:47;25.27;;;15.40;;
30515;SDS011;17297;54.022;10.760;2024-03-02T05:38:12;25.10;;;13.98;;
30515;SDS011;17297;54.022;10.760;2024-03-02T05:40:38;25.27;;;15.07;;
30515;SDS011;17297;54.022;10.760;2024-03-02T05:43:03;21.75;;;13.80;;
30515;SDS011;17297;54.022;10.760;2024-03-02T05:45:29;23.05;;;14.20;;
30515;SDS011;17297;54.022;10.760;2024-03-02T05:47:54;22.90;;;14.43;;
30515;SDS011;17297;54.022;10.760;2024-03-02T05:50:19;29.35;;;16.13;;
30515;SDS011;17297;54.022;10.760;2024-03-02T05:52:45;25.85;;;15.77;;
30515;SDS011;17297;54.022;10.760;2024-03-02T05:55:10;26.98;;;15.55;;
30515;SDS011;17297;54.022;10.760;2024-03-02T05:57:35;26.25;;;16.00;;
30515;SDS011;17297;54.022;10.760;2024-03-02T06:00:10;27.13;;;16.48;;
30515;SDS011;17297;54.022;10.760;2024-03-02T06:02:39;26.40;;;15.07;;
30515;SDS011;17297;54.022;10.760;2024-03-02T06:05:05;27.00;;;15.57;;
30515;SDS011;17297;54.022;10.760;2024-03-02T06:07:32;27.60;;;15.57;;
30515;SDS011;17297;54.022;10.760;2024-03-02T06:09:57;27.85;;;16.02;;
30515;SDS011;17297;54.022;10.760;2024-03-02T06:12:23;22.75;;;15.13;;
30515;SDS011;17297;54.022;10.760;2024-03-02T06:14:49;23.55;;;14.70;;
30515;SDS011;17297;54.022;10.760;2024-03-02T06:17:14;28.13;;;13.98;;
30515;SDS011;17297;54.022;10.760;2024-03-02T06:19:39;26.58;;;15.15;;
30515;SDS011;17297;54.022;10.760;2024-03-02T06:22:05;27.83;;;15.88;;
30515;SDS011;17297;54.022;10.760;2024-03-02T06:24:31;27.77;;;16.25;;
30515;SDS011;17297;54.022;10.760;2024-03-02T06:26:56;29.83;;;16.58;;
30515;SDS011;17297;54.022;10.760;2024-03-02T06:29:21;30.73;;;15.55;;
30515;SDS011;17297;54.022;10.760;2024-03-02T06:31:47;26.67;;;16.23;;
30515;SDS011;17297;54.022;10.760;2024-03-02T06:34:12;25.58;;;15.52;;
30515;SDS011;17297;54.022;10.760;2024-03-02T06:36:38;24.75;;;15.35;;
30515;SDS011;17297;54.022;10.760;2024-03-02T06:39:05;29.17;;;16.10;;
30515;SDS011;17297;54.022;10.760;2024-03-02T06:41:30;23.83;;;14.45;;
30515;SDS011;17297;54.022;10.760;2024-03-02T06:43:56;22.08;;;13.75;;
30515;SDS011;17297;54.022;10.760;2024-03-02T06:46:25;26.42;;;15.20;;
30515;SDS011;17297;54.022;10.760;2024-03-02T06:48:50;30.05;;;18.05;;
30515;SDS011;17297;54.022;10.760;2024-03-02T06:51:16;18.83;;;12.85;;
30515;SDS011;17297;54.022;10.760;2024-03-02T06:53:41;28.48;;;15.98;;
30515;SDS011;17297;54.022;10.760;2024-03-02T06:56:06;26.63;;;14.52;;
30515;SDS011;17297;54.022;10.760;2024-03-02T06:58:33;26.23;;;15.38;;
30515;SDS011;17297;54.022;10.760;2024-03-02T07:00:59;29.85;;;17.23;;
30515;SDS011;17297;54.022;10.760;2024-03-02T07:03:27;33.28;;;19.40;;
30515;SDS011;17297;54.022;10.760;2024-03-02T07:05:52;28.77;;;18.17;;
30515;SDS011;17297;54.022;10.760;2024-03-02T07:08:18;26.80;;;17.30;;
30515;SDS011;17297;54.022;10.760;2024-03-02T07:10:43;30.10;;;16.48;;
30515;SDS011;17297;54.022;10.760;2024-03-02T07:13:08;33.75;;;18.75;;
30515;SDS011;17297;54.022;10.760;2024-03-02T07:15:34;33.08;;;18.30;;
30515;SDS011;17297;54.022;10.760;2024-03-02T07:18:15;27.92;;;17.33;;
30515;SDS011;17297;54.022;10.760;2024-03-02T07:20:40;28.80;;;17.92;;
30515;SDS011;17297;54.022;10.760;2024-03-02T07:23:05;36.03;;;20.92;;
30515;SDS011;17297;54.022;10.760;2024-03-02T07:25:31;31.70;;;18.70;;
30515;SDS011;17297;54.022;10.760;2024-03-02T07:27:56;40.10;;;23.80;;
30515;SDS011;17297;54.022;10.760;2024-03-02T07:30:22;43.13;;;23.15;;
30515;SDS011;17297;54.022;10.760;2024-03-02T07:32:49;43.17;;;23.45;;
30515;SDS011;17297;54.022;10.760;2024-03-02T07:35:15;44.92;;;23.90;;
30515;SDS011;17297;54.022;10.760;2024-03-02T07:37:41;43.72;;;24.63;;
30515;SDS011;17297;54.022;10.760;2024-03-02T07:40:06;35.97;;;21.23;;
30515;SDS011;17297;54.022;10.760;2024-03-02T07:42:35;31.25;;;17.70;;
30515;SDS011;17297;54.022;10.760;2024-03-02T07:45:00;33.42;;;19.08;;
30515;SDS011;17297;54.022;10.760;2024-03-02T07:47:26;29.58;;;17.38;;
30515;SDS011;17297;54.022;10.760;2024-03-02T07:49:51;32.45;;;17.05;;
30515;SDS011;17297;54.022;10.760;2024-03-02T07:52:16;30.40;;;16.30;;
30515;SDS011;17297;54.022;10.760;2024-03-02T07:54:42;29.73;;;16.50;;
30515;SDS011;17297;54.022;10.760;2024-03-02T07:57:07;28.30;;;16.63;;
30515;SDS011;17297;54.022;10.760;2024-03-02T07:59:33;27.77;;;16.10;;
30515;SDS011;17297;54.022;10.760;2024-03-02T08:01:59;38.80;;;21.75;;
30515;SDS011;17297;54.022;10.760;2024-03-02T08:04:24;35.17;;;21.45;;
30515;SDS011;17297;54.022;10.760;2024-03-02T08:06:49;38.60;;;22.27;;
30515;SDS011;17297;54.022;10.760;2024-03-02T08:09:15;36.53;;;20.42;;
30515;SDS011;17297;54.022;10.760;2024-03-02T08:11:40;35.08;;;22.50;;
30515;SDS011;17297;54.022;10.760;2024-03-02T08:14:05;35.28;;;21.25;;
30515;SDS011;17297;54.022;10.760;2024-03-02T08:16:31;40.88;;;23.17;;
30515;SDS011;17297;54.022;10.760;2024-03-02T08:18:56;33.25;;;20.13;;
30515;SDS011;17297;54.022;10.760;2024-03-02T08:21:25;33.10;;;20.55;;
30515;SDS011;17297;54.022;10.760;2024-03-02T08:23:50;37.22;;;20.65;;
30515;SDS011;17297;54.022;10.760;2024-03-02T08:26:16;35.58;;;21.70;;
30515;SDS011;17297;54.022;10.760;2024-03-02T08:28:41;34.08;;;21.02;;
30515;SDS011;17297;54.022;10.760;2024-03-02T08:31:07;40.92;;;22.05;;
30515;SDS011;17297;54.022;10.760;2024-03-02T08:33:32;44.33;;;24.85;;
30515;SDS011;17297;54.022;10.760;2024-03-02T08:35:58;43.38;;;23.90;;
30515;SDS011;17297;54.022;10.760;2024-03-02T08:38:24;32.45;;;20.05;;
30515;SDS011;17297;54.022;10.760;2024-03-02T08:40:49;36.97;;;19.70;;
30515;SDS011;17297;54.022;10.760;2024-03-02T08:43:15;32.67;;;19.50;;
30515;SDS011;17297;54.022;10.760;2024-03-02T08:45:41;36.85;;;19.58;;
30515;SDS011;17297;54.022;10.760;2024-03-02T08:48:09;39.53;;;20.98;;
30515;SDS011;17297;54.022;10.760;2024-03-02T08:50:35;28.95;;;18.75;;
30515;SDS011;17297;54.022;10.760;2024-03-02T08:53:00;36.92;;;20.70;;
30515;SDS011;17297;54.022;10.760;2024-03-02T08:55:26;34.33;;;21.55;;
30515;SDS011;17297;54.022;10.760;2024-03-02T08:57:51;32.38;;;19.27;;
30515;SDS011;17297;54.022;10.760;2024-03-02T09:00:16;32.95;;;19.58;;
30515;SDS011;17297;54.022;10.760;2024-03-02T09:02:45;33.85;;;19.25;;
30515;SDS011;17297;54.022;10.760;2024-03-02T09:05:11;34.90;;;20.08;;
30515;SDS011;17297;54.022;10.760;2024-03-02T09:07:36;34.90;;;20.58;;
30515;SDS011;17297;54.022;10.760;2024-03-02T09:10:03;29.63;;;18.13;;
30515;SDS011;17297;54.022;10.760;2024-03-02T09:12:29;32.13;;;17.63;;
30515;SDS011;17297;54.022;10.760;2024-03-02T09:14:55;29.60;;;17.35;;
30515;SDS011;17297;54.022;10.760;2024-03-02T09:17:20;29.02;;;17.27;;
30515;SDS011;17297;54.022;10.760;2024-03-02T09:19:46;28.20;;;15.65;;
30515;SDS011;17297;54.022;10.760;2024-03-02T09:22:12;30.67;;;18.00;;
30515;SDS011;17297;54.022;10.760;2024-03-02T09:24:38;31.95;;;18.80;;
30515;SDS011;17297;54.022;10.760;2024-03-02T09:27:03;34.55;;;19.92;;
30515;SDS011;17297;54.022;10.760;2024-03-02T09:29:29;33.00;;;19.15;;
30515;SDS011;17297;54.022;10.760;2024-03-02T09:31:55;27.73;;;17.10;;
30515;SDS011;17297;54.022;10.760;2024-03-02T09:34:20;30.25;;;18.02;;
30515;SDS011;17297;54.022;10.760;2024-03-02T09:36:46;28.25;;;17.67;;
30515;SDS011;17297;54.022;10.760;2024-03-02T09:39:11;29.17;;;17.85;;
30515;SDS011;17297;54.022;10.760;2024-03-02T09:41:37;29.63;;;17.40;;
30515;SDS011;17297;54.022;10.760;2024-03-02T09:44:03;29.17;;;17.08;;
30515;SDS011;17297;54.022;10.760;2024-03-02T09:46:32;27.92;;;16.05;;
30515;SDS011;17297;54.022;10.760;2024-03-02T09:48:58;26.02;;;15.95;;
30515;SDS011;17297;54.022;10.760;2024-03-02T09:51:24;27.20;;;17.35;;
30515;SDS011;17297;54.022;10.760;2024-03-02T09:53:50;27.25;;;17.30;;
30515;SDS011;17297;54.022;10.760;2024-03-02T09:56:15;26.52;;;15.73;;
30515;SDS011;17297;54.022;10.760;2024-03-02T09:58:41;29.65;;;15.95;;
30515;SDS011;17297;54.022;10.760;2024-03-02T10:01:06;32.95;;;18.60;;
30515;SDS011;17297;54.022;10.760;2024-03-02T10:03:32;25.90;;;16.77;;
30515;SDS011;17297;54.022;10.760;2024-03-02T10:08:53;25.38;;;15.82;;
30515;SDS011;17297;54.022;10.760;2024-03-02T10:11:30;25.92;;;16.20;;
30515;SDS011;17297;54.022;10.760;2024-03-02T10:14:07;32.05;;;18.67;;
30515;SDS011;17297;54.022;10.760;2024-03-02T10:16:40;28.48;;;18.02;;
30515;SDS011;17297;54.022;10.760;2024-03-02T10:19:17;31.60;;;18.67;;
30515;SDS011;17297;54.022;10.760;2024-03-02T10:21:44;26.33;;;16.80;;
30515;SDS011;17297;54.022;10.760;2024-03-02T10:24:14;24.27;;;16.20;;
30515;SDS011;17297;54.022;10.760;2024-03-02T10:26:40;23.88;;;14.73;;
30515;SDS011;17297;54.022;10.760;2024-03-02T10:29:06;26.10;;;14.65;;
30515;SDS011;17297;54.022;10.760;2024-03-02T10:31:33;27.55;;;15.82;;
30515;SDS011;17297;54.022;10.760;2024-03-02T10:33:58;25.15;;;15.52;;
30515;SDS011;17297;54.022;10.760;2024-03-02T10:36:25;24.15;;;14.98;;
30515;SDS011;17297;54.022;10.760;2024-03-02T10:38:51;25.17;;;14.25;;
30515;SDS011;17297;54.022;10.760;2024-03-02T10:41:20;22.75;;;14.43;;
30515;SDS011;17297;54.022;10.760;2024-03-02T10:43:48;26.48;;;16.42;;
30515;SDS011;17297;54.022;10.760;2024-03-02T10:46:16;24.80;;;15.38;;
30515;SDS011;17297;54.022;10.760;2024-03-02T10:48:44;27.50;;;16.98;;
30515;SDS011;17297;54.022;10.760;2024-03-02T10:51:11;24.88;;;17.58;;
30515;SDS011;17297;54.022;10.760;2024-03-02T10:53:37;28.00;;;16.58;;
30515;SDS011;17297;54.022;10.760;2024-03-02T10:56:02;26.70;;;16.35;;
30515;SDS011;17297;54.022;10.760;2024-03-02T10:58:32;21.30;;;14.75;;
30515;SDS011;17297;54.022;10.760;2024-03-02T11:01:02;37.15;;;19.50;;
30515;SDS011;17297;54.022;10.760;2024-03-02T11:03:29;26.52;;;16.65;;
30515;SDS011;17297;54.022;10.760;2024-03-02T11:05:56;26.27;;;16.98;;
30515;SDS011;17297;54.022;10.760;2024-03-02T11:08:24;24.50;;;15.93;;
30515;SDS011;17297;54.022;10.760;2024-03-02T11:10:53;25.20;;;14.65;;
30515;SDS011;17297;54.022;10.760;2024-03-02T11:13:32;21.92;;;14.75;;
30515;SDS011;17297;54.022;10.760;2024-03-02T11:15:59;25.27;;;15.15;;
30515;SDS011;17297;54.022;10.760;2024-03-02T11:18:31;26.20;;;15.43;;
30515;SDS011;17297;54.022;10.760;2024-03-02T11:20:57;25.67;;;16.17;;
30515;SDS011;17297;54.022;10.760;2024-03-02T11:23:33;28.98;;;15.85;;
30515;SDS011;17297;54.022;10.760;2024-03-02T11:28:41;29.52;;;17.60;;
30515;SDS011;17297;54.022;10.760;2024-03-02T11:31:06;21.45;;;14.68;;
30515;SDS011;17297;54.022;10.760;2024-03-02T11:33:32;26.77;;;15.95;;
30515;SDS011;17297;54.022;10.760;2024-03-02T11:35:57;23.15;;;15.05;;
30515;SDS011;17297;54.022;10.760;2024-03-02T11:38:22;22.23;;;13.82;;
30515;SDS011;17297;54.022;10.760;2024-03-02T11:40:50;18.33;;;11.23;;
30515;SDS011;17297;54.022;10.760;2024-03-02T11:43:15;14.77;;;9.70;;
30515;SDS011;17297;54.022;10.760;2024-03-02T11:45:41;18.30;;;11.02;;
30515;SDS011;17297;54.022;10.760;2024-03-02T11:48:09;14.35;;;9.55;;
30515;SDS011;17297;54.022;10.760;2024-03-02T11:53:14;13.40;;;9.55;;
30515;SDS011;17297;54.022;10.760;2024-03-02T11:55:40;13.05;;;9.30;;
30515;SDS011;17297;54.022;10.760;2024-03-02T11:58:06;13.90;;;8.70;;
30515;SDS011;17297;54.022;10.760;2024-03-02T12:00:34;12.95;;;8.93;;
30515;SDS011;17297;54.022;10.760;2024-03-02T12:03:00;14.60;;;9.65;;
30515;SDS011;17297;54.022;10.760;2024-03-02T12:05:27;12.98;;;8.82;;
30515;SDS011;17297;54.022;10.760;2024-03-02T12:08:00;16.90;;;9.98;;
30515;SDS011;17297;54.022;10.760;2024-03-02T12:10:27;18.05;;;10.15;;
30515;SDS011;17297;54.022;10.760;2024-03-02T12:13:00;12.73;;;9.00;;
30515;SDS011;17297;54.022;10.760;2024-03-02T12:15:30;13.73;;;9.23;;
30515;SDS011;17297;54.022;10.760;2024-03-02T12:17:57;12.90;;;8.57;;
30515;SDS011;17297;54.022;10.760;2024-03-02T12:20:25;13.13;;;8.40;;
30515;SDS011;17297;54.022;10.760;2024-03-02T12:22:54;13.95;;;8.05;;
30515;SDS011;17297;54.022;10.760;2024-03-02T12:25:21;11.93;;;8.80;;
30515;SDS011;17297;54.022;10.760;2024-03-02T12:27:48;14.30;;;8.63;;
30515;SDS011;17297;54.022;10.760;2024-03-02T12:30:16;13.25;;;8.88;;
30515;SDS011;17297;54.022;10.760;2024-03-02T12:32:41;14.20;;;8.32;;
30515;SDS011;17297;54.022;10.760;2024-03-02T12:35:07;11.80;;;8.95;;
30515;SDS011;17297;54.022;10.760;2024-03-02T12:37:32;13.20;;;9.00;;
30515;SDS011;17297;54.022;10.760;2024-03-02T12:39:58;13.40;;;8.90;;
30515;SDS011;17297;54.022;10.760;2024-03-02T12:42:24;11.55;;;8.15;;
30515;SDS011;17297;54.022;10.760;2024-03-02T12:44:53;10.93;;;8.05;;
30515;SDS011;17297;54.022;10.760;2024-03-02T12:47:21;8.68;;;6.80;;
30515;SDS011;17297;54.022;10.760;2024-03-02T12:49:49;8.93;;;6.15;;
30515;SDS011;17297;54.022;10.760;2024-03-02T12:52:16;8.95;;;6.93;;
30515;SDS011;17297;54.022;10.760;2024-03-02T12:54:42;11.45;;;6.45;;
30515;SDS011;17297;54.022;10.760;2024-03-02T12:57:07;10.63;;;6.65;;
30515;SDS011;17297;54.022;10.760;2024-03-02T12:59:33;8.20;;;6.03;;
30515;SDS011;17297;54.022;10.760;2024-03-02T13:01:58;6.63;;;5.20;;
30515;SDS011;17297;54.022;10.760;2024-03-02T13:04:24;6.28;;;5.15;;
30515;SDS011;17297;54.022;10.760;2024-03-02T13:06:53;8.02;;;5.15;;
30515;SDS011;17297;54.022;10.760;2024-03-02T13:09:21;8.70;;;5.93;;
30515;SDS011;17297;54.022;10.760;2024-03-02T13:11:46;10.35;;;5.65;;
30515;SDS011;17297;54.022;10.760;2024-03-02T13:14:12;7.68;;;5.18;;
30515;SDS011;17297;54.022;10.760;2024-03-02T13:16:38;7.05;;;5.28;;
30515;SDS011;17297;54.022;10.760;2024-03-02T13:19:17;7.13;;;5.43;;
30515;SDS011;17297;54.022;10.760;2024-03-02T13:21:44;6.75;;;4.82;;
30515;SDS011;17297;54.022;10.760;2024-03-02T13:24:09;5.75;;;4.90;;
30515;SDS011;17297;54.022;10.760;2024-03-02T13:26:35;6.53;;;5.00;;
30515;SDS011;17297;54.022;10.760;2024-03-02T13:29:00;7.82;;;5.65;;
30515;SDS011;17297;54.022;10.760;2024-03-02T13:31:26;7.35;;;5.20;;
30515;SDS011;17297;54.022;10.760;2024-03-02T13:33:51;8.13;;;5.00;;
30515;SDS011;17297;54.022;10.760;2024-03-02T13:36:16;8.63;;;5.80;;
30515;SDS011;17297;54.022;10.760;2024-03-02T13:38:43;9.20;;;6.20;;
30515;SDS011;17297;54.022;10.760;2024-03-02T13:41:08;9.85;;;5.38;;
30515;SDS011;17297;54.022;10.760;2024-03-02T13:43:34;7.00;;;5.30;;
30515;SDS011;17297;54.022;10.760;2024-03-02T13:46:00;9.73;;;6.10;;
30515;SDS011;17297;54.022;10.760;2024-03-02T13:48:27;9.02;;;6.13;;
30515;SDS011;17297;54.022;10.760;2024-03-02T13:50:52;8.13;;;5.05;;
30515;SDS011;17297;54.022;10.760;2024-03-02T13:53:18;6.50;;;4.63;;
30515;SDS011;17297;54.022;10.760;2024-03-02T13:55:44;10.20;;;5.68;;
30515;SDS011;17297;54.022;10.760;2024-03-02T13:58:10;10.15;;;6.05;;
30515;SDS011;17297;54.022;10.760;2024-03-02T14:00:36;7.57;;;5.72;;
30515;SDS011;17297;54.022;10.760;2024-03-02T14:03:03;8.25;;;5.57;;
30515;SDS011;17297;54.022;10.760;2024-03-02T14:05:30;6.70;;;5.40;;
30515;SDS011;17297;54.022;10.760;2024-03-02T14:07:55;6.53;;;4.90;;
30515;SDS011;17297;54.022;10.760;2024-03-02T14:10:20;8.10;;;5.25;;
30515;SDS011;17297;54.022;10.760;2024-03-02T14:12:48;9.90;;;6.07;;
30515;SDS011;17297;54.022;10.760;2024-03-02T14:15:13;8.02;;;5.32;;
30515;SDS011;17297;54.022;10.760;2024-03-02T14:17:39;8.80;;;5.95;;
30515;SDS011;17297;54.022;10.760;2024-03-02T14:20:04;10.88;;;6.78;;
30515;SDS011;17297;54.022;10.760;2024-03-02T14:22:31;8.18;;;5.05;;